Time;durP1;ratioP1;P1;durP2;ratioP2;P2;SDS_P1;SDS_P2;PMS_P1;PMS_P2;Temp;Humidity;BMP_temperature;BMP_pressure;BME280_temperature;BME280_humidity;BME280_pressure;Samples;Min_cycle;Max_cycle;Signal;HPM_P1;HPM_P2
2023/07/22 00:00:59;;;;;;;11.32;6.30;;;;;;;;;;5021871;28;20029;-75
2023/07/22 00:03:24;;;;;;;9.55;6.03;;;;;;;;;;5019716;28;20036;-75
2023/07/22 00:06:01;;;;;;;11.02;6.00;;;;;;;;;;5018864;28;20041;-75
2023/07/22 00:08:26;;;;;;;9.02;6.03;;;;;;;;;;5017532;28;22488;-74
2023/07/22 00:10:52;;;;;;;10.05;5.30;;;;;;;;;;5039882;28;20039;-76
2023/07/22 00:13:17;;;;;;;8.63;5.70;;;;;;;;;;5018429;28;20094;-74
2023/07/22 00:15:45;;;;;;;12.75;5.65;;;;;;;;;;5018526;28;20033;-74
2023/07/22 00:18:10;;;;;;;10.88;5.88;;;;;;;;;;5017326;28;20048;-74
2023/07/22 00:20:35;;;;;;;11.02;5.43;;;;;;;;;;5034185;28;20139;-74
2023/07/22 00:23:01;;;;;;;10.70;5.55;;;;;;;;;;5020007;28;20044;-74
2023/07/22 00:25:26;;;;;;;12.25;5.45;;;;;;;;;;5028667;28;20087;-74
2023/07/22 00:27:51;;;;;;;10.50;5.95;;;;;;;;;;5018308;28;20052;-74
2023/07/22 00:30:17;;;;;;;9.55;5.82;;;;;;;;;;5017725;28;20044;-76
2023/07/22 00:32:43;;;;;;;9.32;5.38;;;;;;;;;;5047141;28;20029;-76
2023/07/22 00:35:13;;;;;;;11.20;6.10;;;;;;;;;;5015842;28;20037;-75
2023/07/22 00:37:38;;;;;;;11.57;5.45;;;;;;;;;;4997505;28;20799;-75
2023/07/22 00:40:06;;;;;;;12.05;6.22;;;;;;;;;;5012444;28;20033;-75
2023/07/22 00:42:31;;;;;;;9.50;5.35;;;;;;;;;;4996053;28;20045;-75
2023/07/22 00:44:56;;;;;;;14.43;6.00;;;;;;;;;;4999156;28;20065;-75
2023/07/22 00:47:22;;;;;;;10.63;5.40;;;;;;;;;;5047353;28;20703;-75
2023/07/22 00:49:49;;;;;;;9.65;5.35;;;;;;;;;;5007337;28;20104;-75
2023/07/22 00:52:14;;;;;;;10.20;5.57;;;;;;;;;;5012866;28;20121;-75
2023/07/22 00:54:39;;;;;;;10.00;5.75;;;;;;;;;;5019155;28;20416;-75
2023/07/22 00:57:08;;;;;;;8.40;5.60;;;;;;;;;;5019734;28;20040;-75
2023/07/22 00:59:34;;;;;;;10.20;5.28;;;;;;;;;;5020125;28;20037;-75
2023/07/22 01:01:59;;;;;;;12.07;6.20;;;;;;;;;;5016605;28;20068;-75
2023/07/22 01:04:27;;;;;;;10.95;5.10;;;;;;;;;;5010296;28;20033;-75
2023/07/22 01:06:54;;;;;;;10.35;5.18;;;;;;;;;;5032167;28;20155;-75
2023/07/22 01:09:20;;;;;;;9.07;5.28;;;;;;;;;;5017214;28;20139;-75
2023/07/22 01:11:45;;;;;;;11.20;5.30;;;;;;;;;;5016950;28;20159;-77
2023/07/22 01:14:10;;;;;;;8.85;5.40;;;;;;;;;;5018634;28;20054;-75
2023/07/22 01:16:36;;;;;;;9.32;5.30;;;;;;;;;;5000032;28;20041;-74
2023/07/22 01:19:04;;;;;;;11.55;5.10;;;;;;;;;;4993561;28;21016;-75
2023/07/22 01:21:31;;;;;;;13.55;5.60;;;;;;;;;;5028775;28;20042;-75
2023/07/22 01:23:57;;;;;;;11.18;5.15;;;;;;;;;;5043106;28;20048;-75
2023/07/22 01:26:22;;;;;;;10.18;5.22;;;;;;;;;;5017834;28;20786;-74
2023/07/22 01:28:48;;;;;;;10.60;5.45;;;;;;;;;;5013921;28;20064;-74
2023/07/22 01:31:15;;;;;;;11.32;5.10;;;;;;;;;;5016386;28;20041;-74
2023/07/22 01:33:41;;;;;;;11.98;5.38;;;;;;;;;;4999035;28;20079;-74
2023/07/22 01:36:07;;;;;;;10.60;5.13;;;;;;;;;;5010780;28;20584;-75
2023/07/22 01:38:32;;;;;;;12.10;5.15;;;;;;;;;;5016731;28;20818;-75
2023/07/22 01:40:58;;;;;;;10.32;5.03;;;;;;;;;;5011966;28;20098;-74
2023/07/22 01:43:23;;;;;;;11.00;4.80;;;;;;;;;;5021099;28;20763;-75
2023/07/22 01:45:48;;;;;;;9.60;4.82;;;;;;;;;;5016726;28;20036;-74
2023/07/22 01:48:16;;;;;;;9.70;5.05;;;;;;;;;;5010499;28;20096;-73
2023/07/22 01:50:41;;;;;;;8.52;4.20;;;;;;;;;;5012334;28;20501;-76
2023/07/22 01:53:07;;;;;;;8.50;3.92;;;;;;;;;;5015887;28;20122;-75
2023/07/22 01:55:33;;;;;;;9.00;4.03;;;;;;;;;;5017274;28;20051;-75
2023/07/22 01:57:58;;;;;;;8.63;4.10;;;;;;;;;;5032962;28;20626;-74
2023/07/22 02:00:24;;;;;;;8.88;3.58;;;;;;;;;;5018830;28;20040;-75
2023/07/22 02:02:49;;;;;;;9.88;3.67;;;;;;;;;;5032825;28;20124;-76
2023/07/22 02:05:15;;;;;;;6.53;3.70;;;;;;;;;;5017416;28;20090;-75
2023/07/22 02:07:45;;;;;;;7.97;3.65;;;;;;;;;;5019316;28;20124;-76
2023/07/22 02:10:11;;;;;;;8.10;3.83;;;;;;;;;;5033896;28;20089;-77
2023/07/22 02:12:36;;;;;;;10.10;3.90;;;;;;;;;;5021485;28;20624;-76
2023/07/22 02:15:02;;;;;;;8.27;3.95;;;;;;;;;;5021210;28;20121;-74
2023/07/22 02:17:28;;;;;;;7.10;3.40;;;;;;;;;;5020169;28;20517;-75
2023/07/22 02:19:53;;;;;;;10.98;3.83;;;;;;;;;;5022234;28;20047;-75
2023/07/22 02:22:21;;;;;;;10.40;4.00;;;;;;;;;;5020331;28;22254;-75
2023/07/22 02:24:49;;;;;;;7.45;3.35;;;;;;;;;;5016474;28;20048;-75
2023/07/22 02:27:17;;;;;;;9.75;3.65;;;;;;;;;;5019735;28;20030;-75
2023/07/22 02:29:42;;;;;;;9.00;3.90;;;;;;;;;;5016611;28;20037;-74
2023/07/22 02:32:08;;;;;;;7.28;3.47;;;;;;;;;;5017202;28;20033;-75
2023/07/22 02:34:37;;;;;;;6.68;3.50;;;;;;;;;;5020230;28;20065;-75
2023/07/22 02:37:05;;;;;;;11.32;3.83;;;;;;;;;;5021382;28;20047;-75
2023/07/22 02:39:30;;;;;;;6.13;3.10;;;;;;;;;;5035322;28;20028;-76
2023/07/22 02:41:55;;;;;;;8.38;3.50;;;;;;;;;;5021407;28;20044;-76
2023/07/22 02:44:21;;;;;;;8.35;3.50;;;;;;;;;;5022135;28;20033;-76
2023/07/22 02:46:46;;;;;;;9.35;3.22;;;;;;;;;;5051455;28;20036;-75
2023/07/22 02:49:12;;;;;;;7.90;3.03;;;;;;;;;;5022567;28;20041;-75
2023/07/22 02:51:37;;;;;;;7.93;3.25;;;;;;;;;;5036071;28;20039;-76
2023/07/22 02:54:03;;;;;;;5.25;2.80;;;;;;;;;;5021402;28;20041;-74
2023/07/22 02:56:29;;;;;;;12.00;3.65;;;;;;;;;;5019518;28;20041;-75
2023/07/22 02:58:54;;;;;;;11.00;3.85;;;;;;;;;;5020001;28;20041;-74
2023/07/22 03:01:22;;;;;;;6.53;3.20;;;;;;;;;;5013290;28;20041;-75
2023/07/22 03:03:47;;;;;;;7.35;3.20;;;;;;;;;;5018535;28;20087;-72
2023/07/22 03:06:13;;;;;;;7.75;3.40;;;;;;;;;;5035563;28;20402;-76
2023/07/22 03:08:41;;;;;;;5.30;3.10;;;;;;;;;;5020994;28;20059;-76
2023/07/22 03:11:06;;;;;;;8.95;3.60;;;;;;;;;;5019111;28;21431;-75
2023/07/22 03:13:34;;;;;;;8.32;3.50;;;;;;;;;;5021912;28;22196;-75
2023/07/22 03:16:03;;;;;;;7.97;3.15;;;;;;;;;;5020804;28;20044;-73
2023/07/22 03:18:31;;;;;;;7.82;3.47;;;;;;;;;;5032924;28;20033;-75
2023/07/22 03:20:57;;;;;;;9.38;3.17;;;;;;;;;;5016603;28;20103;-74
2023/07/22 03:23:23;;;;;;;5.15;2.85;;;;;;;;;;5019807;28;20143;-76
2023/07/22 03:25:49;;;;;;;7.18;3.33;;;;;;;;;;5019387;28;20708;-74
2023/07/22 03:28:16;;;;;;;7.18;3.08;;;;;;;;;;5036506;28;20041;-73
2023/07/22 03:30:44;;;;;;;9.75;3.10;;;;;;;;;;5013714;28;20092;-73
2023/07/22 03:33:10;;;;;;;14.00;3.47;;;;;;;;;;5000766;28;20037;-74
2023/07/22 03:35:36;;;;;;;6.38;2.95;;;;;;;;;;5000725;28;20158;-74
2023/07/22 03:38:01;;;;;;;10.27;3.33;;;;;;;;;;5012580;28;20670;-75
2023/07/22 03:40:29;;;;;;;6.95;3.25;;;;;;;;;;5000857;28;20033;-74
2023/07/22 03:42:54;;;;;;;6.82;3.38;;;;;;;;;;4999594;28;20399;-74
2023/07/22 03:45:20;;;;;;;11.05;3.03;;;;;;;;;;4998049;28;20032;-74
2023/07/22 03:47:47;;;;;;;10.18;3.45;;;;;;;;;;5018144;28;20128;-75
2023/07/22 03:50:14;;;;;;;6.00;2.97;;;;;;;;;;5019323;28;20127;-74
2023/07/22 03:52:39;;;;;;;10.25;3.42;;;;;;;;;;5016877;28;20041;-74
2023/07/22 03:55:05;;;;;;;7.18;3.15;;;;;;;;;;4998859;28;20042;-72
2023/07/22 03:57:30;;;;;;;9.38;3.40;;;;;;;;;;4997602;28;20664;-75
2023/07/22 03:59:58;;;;;;;10.50;3.40;;;;;;;;;;5001080;28;20536;-72
2023/07/22 04:02:24;;;;;;;9.05;3.10;;;;;;;;;;5020790;28;21015;-73
2023/07/22 04:04:53;;;;;;;12.20;3.70;;;;;;;;;;5015125;28;20123;-73
2023/07/22 04:07:18;;;;;;;6.63;3.08;;;;;;;;;;5019444;28;20062;-75
2023/07/22 04:09:47;;;;;;;9.20;3.55;;;;;;;;;;5017707;28;20033;-75
2023/07/22 04:12:12;;;;;;;7.70;3.50;;;;;;;;;;5017859;28;20029;-74
2023/07/22 04:14:38;;;;;;;10.68;3.38;;;;;;;;;;5019531;28;20071;-72
2023/07/22 04:17:06;;;;;;;9.52;3.75;;;;;;;;;;5017699;28;20056;-73
2023/07/22 04:19:31;;;;;;;10.43;3.20;;;;;;;;;;5012921;28;20517;-74
2023/07/22 04:21:56;;;;;;;8.07;3.22;;;;;;;;;;4999112;28;20065;-73
2023/07/22 04:24:22;;;;;;;7.75;3.20;;;;;;;;;;5028268;28;20561;-75
2023/07/22 04:26:47;;;;;;;10.32;3.00;;;;;;;;;;4993700;28;20033;-73
2023/07/22 04:29:12;;;;;;;6.22;2.90;;;;;;;;;;4998915;28;22370;-77
2023/07/22 04:31:40;;;;;;;9.52;3.10;;;;;;;;;;4999359;28;20087;-75
2023/07/22 04:34:06;;;;;;;7.45;3.25;;;;;;;;;;5000286;28;20645;-74
2023/07/22 04:36:31;;;;;;;7.63;2.70;;;;;;;;;;5011399;28;20160;-73
2023/07/22 04:38:57;;;;;;;6.40;2.88;;;;;;;;;;5030445;28;20579;-73
2023/07/22 04:41:22;;;;;;;7.95;2.80;;;;;;;;;;4998842;28;20096;-74
2023/07/22 04:43:47;;;;;;;6.55;2.67;;;;;;;;;;4999772;28;20030;-74
2023/07/22 04:46:13;;;;;;;6.03;2.65;;;;;;;;;;4995837;28;20099;-76
2023/07/22 04:48:41;;;;;;;7.18;2.92;;;;;;;;;;5029977;28;20068;-74
2023/07/22 04:51:06;;;;;;;4.55;2.58;;;;;;;;;;4995215;28;20048;-73
2023/07/22 04:53:33;;;;;;;9.55;2.97;;;;;;;;;;4997238;28;20037;-74
2023/07/22 04:55:58;;;;;;;7.10;2.90;;;;;;;;;;4997716;28;20041;-73
2023/07/22 04:58:24;;;;;;;6.78;2.70;;;;;;;;;;4997659;28;20064;-73
2023/07/22 05:00:49;;;;;;;7.55;2.88;;;;;;;;;;4996108;28;20525;-75
2023/07/22 05:03:15;;;;;;;7.72;3.08;;;;;;;;;;4996393;28;22187;-73
2023/07/22 05:05:41;;;;;;;12.32;3.45;;;;;;;;;;4997455;28;20049;-70
2023/07/22 05:08:08;;;;;;;8.45;3.15;;;;;;;;;;4999020;28;20069;-70
2023/07/22 05:10:33;;;;;;;7.03;3.47;;;;;;;;;;5006195;28;20156;-73
2023/07/22 05:12:58;;;;;;;10.65;3.67;;;;;;;;;;5012480;28;20565;-72
2023/07/22 05:15:24;;;;;;;9.48;3.67;;;;;;;;;;5015490;28;20061;-72
2023/07/22 05:17:49;;;;;;;10.18;3.40;;;;;;;;;;4996309;28;20040;-72
2023/07/22 05:20:15;;;;;;;8.60;3.58;;;;;;;;;;4991555;28;20034;-70
2023/07/22 05:22:41;;;;;;;8.77;3.28;;;;;;;;;;4992054;28;20510;-70
2023/07/22 05:25:07;;;;;;;9.38;3.33;;;;;;;;;;4996955;28;20037;-71
2023/07/22 05:27:33;;;;;;;6.07;3.30;;;;;;;;;;4995626;28;20068;-71
2023/07/22 05:29:58;;;;;;;9.75;3.25;;;;;;;;;;5026619;28;20034;-70
2023/07/22 05:32:23;;;;;;;5.60;3.22;;;;;;;;;;4998875;28;20037;-73
2023/07/22 05:34:51;;;;;;;8.48;3.33;;;;;;;;;;4996459;28;20034;-71
2023/07/22 05:37:19;;;;;;;9.02;3.00;;;;;;;;;;4996616;28;20121;-72
2023/07/22 05:39:44;;;;;;;9.60;3.28;;;;;;;;;;4998112;28;20056;-72
2023/07/22 05:42:09;;;;;;;6.68;2.45;;;;;;;;;;5006469;28;20115;-70
2023/07/22 05:44:35;;;;;;;9.75;3.20;;;;;;;;;;5001277;28;20091;-70
2023/07/22 05:47:00;;;;;;;8.63;3.00;;;;;;;;;;4995851;28;20045;-72
2023/07/22 05:49:25;;;;;;;10.45;2.80;;;;;;;;;;4998401;28;20061;-72
2023/07/22 05:51:51;;;;;;;8.75;2.92;;;;;;;;;;5015642;28;20188;-71
2023/07/22 05:54:19;;;;;;;8.18;3.47;;;;;;;;;;5001843;28;20034;-70
2023/07/22 05:56:44;;;;;;;9.50;3.40;;;;;;;;;;5000222;28;20055;-72
2023/07/22 05:59:09;;;;;;;9.90;4.63;;;;;;;;;;4998418;28;20033;-71
2023/07/22 06:01:35;;;;;;;8.93;3.35;;;;;;;;;;4999434;28;20041;-73
2023/07/22 06:04:00;;;;;;;9.15;3.33;;;;;;;;;;4997286;28;20038;-72
2023/07/22 06:06:27;;;;;;;6.25;3.63;;;;;;;;;;4993566;28;20030;-72
2023/07/22 06:08:52;;;;;;;7.28;3.40;;;;;;;;;;4995958;28;20050;-71
2023/07/22 06:11:17;;;;;;;9.32;3.72;;;;;;;;;;4994034;28;20041;-71
2023/07/22 06:13:43;;;;;;;10.80;3.83;;;;;;;;;;4998852;28;20084;-71
2023/07/22 06:16:08;;;;;;;7.35;3.40;;;;;;;;;;4997477;28;20051;-72
2023/07/22 06:18:33;;;;;;;7.50;3.92;;;;;;;;;;4993984;28;20037;-72
2023/07/22 06:20:59;;;;;;;9.38;3.85;;;;;;;;;;5022098;28;20225;-73
2023/07/22 06:23:24;;;;;;;7.90;3.80;;;;;;;;;;5008808;28;20034;-72
2023/07/22 06:25:49;;;;;;;7.38;3.85;;;;;;;;;;4997691;28;20044;-71
2023/07/22 06:28:15;;;;;;;6.50;3.70;;;;;;;;;;4994799;28;20053;-70
2023/07/22 06:30:40;;;;;;;8.02;3.95;;;;;;;;;;5028164;28;20041;-71
2023/07/22 06:33:05;;;;;;;10.68;4.22;;;;;;;;;;4995895;28;20549;-71
2023/07/22 06:35:30;;;;;;;8.85;4.20;;;;;;;;;;4999138;28;20038;-71
2023/07/22 06:37:56;;;;;;;14.05;4.22;;;;;;;;;;5000487;28;20033;-73
2023/07/22 06:40:21;;;;;;;18.42;5.68;;;;;;;;;;5029863;28;20095;-71
2023/07/22 06:42:46;;;;;;;22.50;4.30;;;;;;;;;;5006136;28;20025;-72
2023/07/22 06:45:12;;;;;;;26.80;4.50;;;;;;;;;;5028161;28;20033;-72
2023/07/22 06:47:37;;;;;;;13.05;3.63;;;;;;;;;;4997848;28;20026;-72
2023/07/22 06:50:04;;;;;;;9.65;3.08;;;;;;;;;;4994457;28;20034;-71
2023/07/22 06:52:29;;;;;;;7.88;3.45;;;;;;;;;;5004121;28;20097;-73
2023/07/22 06:54:57;;;;;;;7.88;2.70;;;;;;;;;;5013526;28;20038;-75
2023/07/22 06:57:23;;;;;;;10.27;3.10;;;;;;;;;;5017599;28;20026;-73
2023/07/22 06:59:50;;;;;;;11.15;3.92;;;;;;;;;;5012488;28;20192;-73
2023/07/22 07:02:15;;;;;;;10.02;4.35;;;;;;;;;;5003581;28;20034;-72
2023/07/22 07:04:41;;;;;;;12.93;4.78;;;;;;;;;;5003264;28;20033;-73
2023/07/22 07:07:06;;;;;;;11.00;5.28;;;;;;;;;;5008376;28;20037;-74
2023/07/22 07:09:32;;;;;;;10.45;5.38;;;;;;;;;;5006673;28;20090;-73
2023/07/22 07:11:57;;;;;;;11.75;5.85;;;;;;;;;;5008726;28;20421;-74
2023/07/22 07:14:25;;;;;;;22.55;9.05;;;;;;;;;;5009508;28;20032;-72
2023/07/22 07:16:50;;;;;;;19.23;9.00;;;;;;;;;;5017764;28;20478;-77
2023/07/22 07:19:15;;;;;;;18.77;7.53;;;;;;;;;;5004400;28;20045;-74
2023/07/22 07:21:40;;;;;;;17.50;7.15;;;;;;;;;;5023505;28;20268;-75
2023/07/22 07:24:06;;;;;;;12.23;6.38;;;;;;;;;;5002203;28;20034;-70
2023/07/22 07:26:31;;;;;;;16.48;6.78;;;;;;;;;;5003121;28;20040;-71
2023/07/22 07:28:57;;;;;;;13.75;6.18;;;;;;;;;;4999226;28;20164;-76
2023/07/22 07:31:22;;;;;;;11.98;6.53;;;;;;;;;;5000986;28;20726;-78
2023/07/22 07:33:47;;;;;;;13.00;6.85;;;;;;;;;;5001168;28;20047;-75
2023/07/22 07:36:12;;;;;;;11.73;5.80;;;;;;;;;;5001730;28;20044;-77
2023/07/22 07:38:38;;;;;;;11.48;5.60;;;;;;;;;;5031055;28;20025;-76
2023/07/22 07:41:08;;;;;;;9.27;5.22;;;;;;;;;;5023708;28;20143;-76
2023/07/22 07:43:34;;;;;;;11.48;5.43;;;;;;;;;;5045003;28;20078;-77
2023/07/22 07:46:21;;;;;;;11.05;5.28;;;;;;;;;;5024135;28;20505;-74
2023/07/22 07:48:49;;;;;;;13.35;5.30;;;;;;;;;;5029330;28;20049;-76
2023/07/22 07:51:15;;;;;;;10.98;4.55;;;;;;;;;;5000610;28;20131;-74
2023/07/22 07:53:41;;;;;;;13.10;4.97;;;;;;;;;;5011228;28;20466;-76
2023/07/22 07:56:09;;;;;;;8.85;4.50;;;;;;;;;;5028926;28;20025;-74
2023/07/22 07:58:37;;;;;;;10.05;4.63;;;;;;;;;;5019425;28;20573;-77
2023/07/22 08:01:03;;;;;;;7.50;4.15;;;;;;;;;;5030534;28;20033;-76
2023/07/22 08:03:29;;;;;;;10.55;3.65;;;;;;;;;;5032336;28;20066;-76
2023/07/22 08:05:54;;;;;;;10.10;3.20;;;;;;;;;;5049486;28;20192;-73
2023/07/22 08:08:19;;;;;;;28.25;3.65;;;;;;;;;;5031033;28;20520;-73
2023/07/22 08:10:45;;;;;;;6.30;2.80;;;;;;;;;;5030508;28;20037;-75
2023/07/22 08:13:12;;;;;;;11.50;3.13;;;;;;;;;;5035005;28;20556;-73
2023/07/22 08:15:38;;;;;;;7.40;3.20;;;;;;;;;;5044869;28;20084;-68
2023/07/22 08:18:05;;;;;;;9.55;3.28;;;;;;;;;;5015504;28;20136;-69
2023/07/22 08:20:33;;;;;;;10.23;3.55;;;;;;;;;;5014597;28;20167;-71
2023/07/22 08:22:58;;;;;;;8.82;3.50;;;;;;;;;;5017086;28;20059;-73
2023/07/22 08:25:23;;;;;;;8.02;3.40;;;;;;;;;;5010271;28;20037;-71
2023/07/22 08:27:49;;;;;;;6.93;2.85;;;;;;;;;;5017241;28;20049;-72
2023/07/22 08:30:14;;;;;;;8.60;3.10;;;;;;;;;;5018220;28;20133;-71
2023/07/22 08:32:39;;;;;;;10.63;2.92;;;;;;;;;;5029108;28;20044;-75
2023/07/22 08:35:07;;;;;;;6.90;2.80;;;;;;;;;;5041160;28;20049;-76
2023/07/22 08:37:32;;;;;;;8.05;2.90;;;;;;;;;;5036821;28;20030;-75
2023/07/22 08:39:58;;;;;;;5.38;3.00;;;;;;;;;;5016976;28;20033;-73
2023/07/22 08:42:23;;;;;;;8.43;3.28;;;;;;;;;;5002124;28;20029;-75
2023/07/22 08:44:52;;;;;;;8.32;3.10;;;;;;;;;;5023030;28;20029;-75
2023/07/22 08:47:22;;;;;;;8.73;2.88;;;;;;;;;;5024385;28;20038;-75
2023/07/22 08:49:51;;;;;;;10.77;3.05;;;;;;;;;;5031259;28;20171;-76
2023/07/22 08:52:17;;;;;;;9.43;2.97;;;;;;;;;;5052502;28;20068;-72
2023/07/22 08:54:43;;;;;;;10.23;3.08;;;;;;;;;;5039299;28;20037;-75
2023/07/22 08:57:09;;;;;;;29.77;3.90;;;;;;;;;;5022630;28;20029;-74
2023/07/22 08:59:34;;;;;;;14.65;3.28;;;;;;;;;;5002195;28;20124;-74
2023/07/22 09:02:02;;;;;;;9.18;3.30;;;;;;;;;;5031436;28;20555;-73
2023/07/22 09:04:30;;;;;;;7.28;2.75;;;;;;;;;;5015485;28;20037;-74
2023/07/22 09:06:56;;;;;;;8.50;3.10;;;;;;;;;;5016292;28;20033;-74
2023/07/22 09:09:22;;;;;;;11.40;2.47;;;;;;;;;;5013837;28;20073;-77
2023/07/22 09:11:48;;;;;;;12.65;3.30;;;;;;;;;;5013725;28;20489;-74
2023/07/22 09:14:13;;;;;;;13.23;2.97;;;;;;;;;;5017143;28;20041;-74
2023/07/22 09:16:39;;;;;;;12.70;3.25;;;;;;;;;;5015316;28;20033;-75
2023/07/22 09:19:06;;;;;;;10.13;2.78;;;;;;;;;;5014392;28;20041;-74
2023/07/22 09:21:35;;;;;;;12.85;3.42;;;;;;;;;;5011552;28;20172;-76
2023/07/22 09:24:00;;;;;;;11.10;2.90;;;;;;;;;;5015314;28;20143;-75
2023/07/22 09:26:26;;;;;;;15.57;2.58;;;;;;;;;;5046092;28;20035;-74
2023/07/22 09:28:55;;;;;;;17.65;3.17;;;;;;;;;;5014711;28;20090;-73
2023/07/22 09:31:24;;;;;;;11.52;3.13;;;;;;;;;;4995524;28;20037;-73
2023/07/22 09:33:50;;;;;;;13.13;3.33;;;;;;;;;;5025563;28;20490;-72
2023/07/22 09:36:16;;;;;;;12.40;3.65;;;;;;;;;;4992658;28;20045;-73
2023/07/22 09:38:43;;;;;;;11.48;3.10;;;;;;;;;;4997387;28;20120;-74
2023/07/22 09:41:09;;;;;;;15.10;3.22;;;;;;;;;;4994353;28;20044;-77
2023/07/22 09:43:38;;;;;;;14.18;3.10;;;;;;;;;;4995140;28;20048;-76
2023/07/22 09:46:10;;;;;;;17.70;3.03;;;;;;;;;;5001501;28;20147;-75
2023/07/22 09:48:47;;;;;;;18.23;3.70;;;;;;;;;;5009742;28;20049;-76
2023/07/22 09:51:17;;;;;;;13.32;3.00;;;;;;;;;;5009466;28;20056;-73
2023/07/22 09:53:46;;;;;;;17.50;2.63;;;;;;;;;;5044832;28;20543;-72
2023/07/22 09:56:11;;;;;;;17.52;3.05;;;;;;;;;;5048983;28;20505;-77
2023/07/22 09:58:37;;;;;;;12.82;2.70;;;;;;;;;;5048810;28;20037;-74
2023/07/22 10:01:04;;;;;;;19.20;3.05;;;;;;;;;;5024939;28;20082;-72
2023/07/22 10:03:31;;;;;;;16.27;2.42;;;;;;;;;;5023493;28;20418;-72
2023/07/22 10:05:57;;;;;;;22.40;3.30;;;;;;;;;;5021084;28;20085;-70
2023/07/22 10:08:24;;;;;;;14.85;2.65;;;;;;;;;;5019299;28;20041;-71
2023/07/22 10:10:52;;;;;;;22.42;2.90;;;;;;;;;;5015937;28;20136;-75
2023/07/22 10:13:20;;;;;;;15.10;2.80;;;;;;;;;;5013978;28;20061;-75
2023/07/22 10:15:46;;;;;;;14.48;2.35;;;;;;;;;;5013109;28;20033;-74
2023/07/22 10:18:11;;;;;;;21.65;3.15;;;;;;;;;;4987844;28;20790;-74
2023/07/22 10:20:37;;;;;;;22.77;2.50;;;;;;;;;;5014732;28;20759;-73
2023/07/22 10:23:07;;;;;;;25.23;3.60;;;;;;;;;;5012335;28;20963;-73
2023/07/22 10:25:33;;;;;;;24.42;2.67;;;;;;;;;;5014080;28;20048;-73
2023/07/22 10:27:58;;;;;;;22.35;3.33;;;;;;;;;;5012455;28;20049;-76
2023/07/22 10:30:23;;;;;;;26.92;2.92;;;;;;;;;;5020254;28;20036;-75
2023/07/22 10:32:50;;;;;;;20.23;3.10;;;;;;;;;;5015832;28;20111;-73
2023/07/22 10:35:33;;;;;;;15.25;2.72;;;;;;;;;;5015836;28;20876;-76
2023/07/22 10:38:15;;;;;;;17.17;2.30;;;;;;;;;;5011984;28;20064;-75
2023/07/22 10:40:45;;;;;;;13.05;2.55;;;;;;;;;;5011870;28;20087;-71
2023/07/22 10:43:11;;;;;;;18.35;3.10;;;;;;;;;;5011491;28;20079;-71
2023/07/22 10:45:40;;;;;;;18.88;2.50;;;;;;;;;;5013357;28;20063;-75
2023/07/22 10:48:09;;;;;;;15.55;2.75;;;;;;;;;;5014563;28;20099;-71
2023/07/22 10:50:48;;;;;;;17.58;2.50;;;;;;;;;;5020108;28;20690;-74
2023/07/22 10:53:26;;;;;;;13.52;2.53;;;;;;;;;;4996045;28;20038;-70
2023/07/22 10:56:04;;;;;;;16.75;2.30;;;;;;;;;;4995810;28;20117;-73
2023/07/22 10:58:30;;;;;;;23.00;2.75;;;;;;;;;;5017551;28;20512;-72
2023/07/22 11:00:58;;;;;;;19.95;2.33;;;;;;;;;;5016666;28;20556;-72
2023/07/22 11:03:23;;;;;;;17.05;2.80;;;;;;;;;;5018004;28;20984;-71
2023/07/22 11:05:53;;;;;;;17.50;2.88;;;;;;;;;;5019095;28;20041;-73
2023/07/22 11:08:44;;;;;;;17.52;2.78;;;;;;;;;;5018865;28;20048;-73
2023/07/22 11:11:11;;;;;;;23.85;3.38;;;;;;;;;;5011664;28;20042;-72
2023/07/22 11:13:41;;;;;;;16.95;3.30;;;;;;;;;;5017391;28;20025;-70
2023/07/22 11:16:10;;;;;;;16.77;2.88;;;;;;;;;;5016520;28;20036;-72
2023/07/22 11:18:36;;;;;;;13.82;3.03;;;;;;;;;;5019377;28;20033;-73
2023/07/22 11:21:01;;;;;;;66.72;5.50;;;;;;;;;;5016944;28;20159;-72
2023/07/22 11:23:27;;;;;;;19.45;3.90;;;;;;;;;;5019106;28;20078;-71
2023/07/22 11:25:53;;;;;;;16.00;3.25;;;;;;;;;;5015643;28;22390;-70
2023/07/22 11:28:19;;;;;;;23.70;3.75;;;;;;;;;;5012128;28;20049;-72
2023/07/22 11:30:44;;;;;;;17.05;3.90;;;;;;;;;;5017660;28;20215;-73
2023/07/22 11:33:09;;;;;;;20.70;3.85;;;;;;;;;;5017755;28;20040;-72
2023/07/22 11:35:34;;;;;;;21.80;3.72;;;;;;;;;;5012090;28;20069;-76
2023/07/22 11:38:01;;;;;;;19.63;3.58;;;;;;;;;;5013650;28;20095;-71
2023/07/22 11:40:32;;;;;;;29.48;4.63;;;;;;;;;;5018323;28;20033;-70
2023/07/22 11:42:58;;;;;;;21.75;3.90;;;;;;;;;;5015659;28;20048;-72
2023/07/22 11:45:25;;;;;;;17.77;3.38;;;;;;;;;;5044832;28;20057;-73
2023/07/22 11:47:50;;;;;;;23.85;4.15;;;;;;;;;;5018241;28;20041;-75
2023/07/22 11:50:16;;;;;;;19.73;4.15;;;;;;;;;;5017572;28;20041;-71
2023/07/22 11:52:41;;;;;;;25.35;4.50;;;;;;;;;;5015524;28;20488;-74
2023/07/22 11:55:07;;;;;;;18.45;4.40;;;;;;;;;;5016271;28;20755;-72
2023/07/22 11:57:32;;;;;;;17.05;4.35;;;;;;;;;;5014103;28;20033;-72
2023/07/22 11:59:57;;;;;;;17.63;4.22;;;;;;;;;;5017420;28;20040;-73
2023/07/22 12:02:23;;;;;;;17.20;4.63;;;;;;;;;;5037426;28;20207;-71
2023/07/22 12:04:54;;;;;;;13.82;4.10;;;;;;;;;;5016028;28;20029;-70
2023/07/22 12:07:29;;;;;;;19.88;4.88;;;;;;;;;;5009828;28;20025;-74
2023/07/22 12:09:57;;;;;;;18.10;4.78;;;;;;;;;;5015519;28;20710;-71
2023/07/22 12:12:37;;;;;;;12.75;4.45;;;;;;;;;;5015011;28;20684;-72
2023/07/22 12:15:04;;;;;;;15.43;4.53;;;;;;;;;;5021523;28;20037;-73
2023/07/22 12:17:29;;;;;;;16.83;4.55;;;;;;;;;;5016589;28;20512;-72
2023/07/22 12:19:57;;;;;;;12.57;4.40;;;;;;;;;;5017497;28;20041;-72
2023/07/22 12:22:22;;;;;;;13.63;4.75;;;;;;;;;;5015573;28;20025;-75
2023/07/22 12:24:48;;;;;;;10.73;4.25;;;;;;;;;;5014641;28;20155;-73
2023/07/22 12:27:15;;;;;;;14.05;4.57;;;;;;;;;;5014781;28;20033;-70
2023/07/22 12:29:43;;;;;;;13.25;4.82;;;;;;;;;;5013182;28;20051;-71
2023/07/22 12:32:09;;;;;;;16.05;4.63;;;;;;;;;;5045539;28;20425;-72
2023/07/22 12:34:34;;;;;;;10.65;4.35;;;;;;;;;;5013989;28;20090;-74
2023/07/22 12:37:00;;;;;;;13.63;3.97;;;;;;;;;;5029587;28;20863;-72
2023/07/22 12:39:28;;;;;;;14.40;4.10;;;;;;;;;;5013426;28;20036;-71
2023/07/22 12:41:54;;;;;;;14.35;3.83;;;;;;;;;;5009266;28;20425;-72
2023/07/22 12:44:19;;;;;;;13.15;4.00;;;;;;;;;;5031861;28;20087;-72
2023/07/22 12:46:47;;;;;;;10.63;3.83;;;;;;;;;;5016476;28;20051;-73
2023/07/22 12:49:12;;;;;;;10.55;3.20;;;;;;;;;;5015024;28;20045;-71
2023/07/22 12:51:38;;;;;;;9.90;3.58;;;;;;;;;;5014071;28;20037;-73
2023/07/22 12:54:06;;;;;;;8.88;3.25;;;;;;;;;;5010720;28;20040;-71
2023/07/22 12:56:33;;;;;;;9.05;3.00;;;;;;;;;;5010580;28;20052;-71
2023/07/22 12:58:58;;;;;;;14.82;3.17;;;;;;;;;;5011058;28;20063;-72
2023/07/22 13:01:26;;;;;;;12.55;3.13;;;;;;;;;;5012967;28;20034;-73
2023/07/22 13:03:51;;;;;;;9.40;3.20;;;;;;;;;;5012801;28;20035;-73
2023/07/22 13:06:16;;;;;;;13.38;4.03;;;;;;;;;;5014595;28;20033;-71
2023/07/22 13:08:42;;;;;;;10.63;3.92;;;;;;;;;;5013316;28;20246;-71
2023/07/22 13:11:07;;;;;;;17.15;4.15;;;;;;;;;;5046375;28;20033;-74
2023/07/22 13:13:32;;;;;;;11.02;3.40;;;;;;;;;;4995722;28;20037;-72
2023/07/22 13:15:58;;;;;;;12.13;3.55;;;;;;;;;;4995947;28;20029;-73
2023/07/22 13:18:23;;;;;;;12.15;3.53;;;;;;;;;;4996887;28;22453;-73
2023/07/22 13:20:48;;;;;;;10.23;3.45;;;;;;;;;;4995022;28;20038;-72
2023/07/22 13:23:13;;;;;;;10.82;4.20;;;;;;;;;;4994023;28;20533;-72
2023/07/22 13:25:39;;;;;;;9.13;4.28;;;;;;;;;;5002052;28;20097;-71
2023/07/22 13:28:05;;;;;;;12.82;4.50;;;;;;;;;;5017631;28;20041;-74
2023/07/22 13:30:30;;;;;;;16.20;4.40;;;;;;;;;;5001637;28;20076;-71
2023/07/22 13:32:56;;;;;;;10.52;4.25;;;;;;;;;;4993152;28;20734;-73
2023/07/22 13:35:21;;;;;;;11.43;4.28;;;;;;;;;;5003161;28;20060;-70
2023/07/22 13:37:47;;;;;;;13.88;4.63;;;;;;;;;;5012992;28;20034;-70
2023/07/22 13:40:14;;;;;;;13.13;4.20;;;;;;;;;;5015067;28;20079;-73
2023/07/22 13:42:40;;;;;;;9.75;3.72;;;;;;;;;;5009763;28;20499;-73
2023/07/22 13:45:05;;;;;;;12.10;4.43;;;;;;;;;;5012866;28;20095;-72
2023/07/22 13:47:31;;;;;;;11.90;3.67;;;;;;;;;;5013936;28;20048;-70
2023/07/22 13:49:56;;;;;;;12.07;3.47;;;;;;;;;;4999842;28;20041;-70
2023/07/22 13:52:21;;;;;;;13.15;3.65;;;;;;;;;;4999598;28;20048;-71
2023/07/22 13:54:47;;;;;;;10.45;3.90;;;;;;;;;;4992752;28;20029;-72
2023/07/22 13:57:12;;;;;;;7.40;2.88;;;;;;;;;;5025259;28;20636;-71
2023/07/22 13:59:37;;;;;;;10.10;3.10;;;;;;;;;;4991838;28;20036;-64
2023/07/22 14:02:03;;;;;;;9.35;3.28;;;;;;;;;;4988386;28;20129;-67
2023/07/22 14:04:28;;;;;;;11.73;3.38;;;;;;;;;;4994078;28;20120;-67
2023/07/22 14:06:54;;;;;;;14.55;3.35;;;;;;;;;;5022355;28;20033;-70
2023/07/22 14:09:19;;;;;;;11.57;3.38;;;;;;;;;;4996570;28;20083;-68
2023/07/22 14:11:44;;;;;;;12.82;3.30;;;;;;;;;;4995142;28;20033;-70
2023/07/22 14:14:10;;;;;;;9.90;3.00;;;;;;;;;;4996119;28;20040;-67
2023/07/22 14:16:35;;;;;;;11.15;2.83;;;;;;;;;;5025996;28;20037;-67
2023/07/22 14:19:00;;;;;;;10.07;2.65;;;;;;;;;;4996414;28;20052;-68
2023/07/22 14:21:26;;;;;;;10.68;3.13;;;;;;;;;;4995213;28;20037;-66
2023/07/22 14:23:51;;;;;;;13.95;3.13;;;;;;;;;;4996855;28;20033;-66
2023/07/22 14:26:16;;;;;;;9.95;3.05;;;;;;;;;;5011073;28;20037;-67
2023/07/22 14:28:42;;;;;;;13.13;3.00;;;;;;;;;;4996537;28;20057;-67
2023/07/22 14:31:07;;;;;;;10.90;2.60;;;;;;;;;;4995589;28;20040;-65